Ampere, New Jersey
Current Conditions -  °F | °C
As of 3:51 AM on Friday 19 Dec 2014 (Local Time) from KEWR Reporting Station
Broken Clouds Broken Clouds  
Wind Chill: -2°   Ceiling: 3500
Heat Index:   Visibility: 10mi
Dew Point: -4°   Wind: 16mph
Humidity: 62%   Direction: 300°WNW
Pressure: 29.98"   Gusts: 22mph
Location:  40.7716°N, 74.2073°W
Report Text: KEWR 190851Z 30014G19KT 10SM BKN035 BKN050 03/M04 A2998 RMK AO2 SLP153 T00281039 50002
Loading
Personal Weather Stations






























Interactive Weather Map New forecast layout! Learn more

10-Day Weather Forecast

Advertisements
Track Severe Weather on mobile